Terminal Aerodrome Forecast
Issued by NWS

Home | Current Version | Previous Version | Text Only | Print | Product List | Glossary On
Versions: 1 2 3 4 5 6 7 8 9 10 11 12 13 14 15 16 17 18 19 20 21 22 23 24 25 26 27 28 29 30 31 32 33 34 35 36 37 38 39 40 41 42 43 44 45 46 47 48 49 50
000
FTUS45 KBOU 242215 AAB
TAFAPA
TAF AMD
KAPA 242215Z 2422/2518 06006KT P6SM FEW030 BKN060 BKN100
      TEMPO 2422/2501 VRB15G25KT 5SM TSRA BKN030CB OVC050
     FM250100 VRB06KT P6SM SCT030 OVC070
     FM250300 30007KT P6SM SCT050 BKN100
     FM250700 20008KT P6SM SCT080 BKN220
     FM251400 VRB05KT P6SM SCT080 BKN220=

USA.gov is the U.S. government's official web portal to all federal, state and local government web resources and services.